createdAt,value
2019-03-15T00:00:35.219Z,5.50
2019-03-15T00:03:07.102Z,5.87
2019-03-15T00:05:39.103Z,4.73
2019-03-15T00:08:11.467Z,5.77
2019-03-15T00:10:43.706Z,3.63
2019-03-15T00:13:15.557Z,6.37
2019-03-15T00:15:49.003Z,5.17
2019-03-15T00:18:20.850Z,5.50
2019-03-15T00:20:52.767Z,3.97
2019-03-15T00:23:25.611Z,3.80
2019-03-15T00:25:57.420Z,3.50
2019-03-15T00:28:29.483Z,4.93
2019-03-15T00:31:01.348Z,5.00
2019-03-15T00:33:33.239Z,6.00
2019-03-15T00:36:06.635Z,3.03
2019-03-15T00:38:38.403Z,4.60
2019-03-15T00:41:11.095Z,7.13
2019-03-15T00:43:44.120Z,5.53
2019-03-15T00:46:16.727Z,3.20
2019-03-15T00:48:48.967Z,3.27
2019-03-15T00:51:20.760Z,5.77
2019-03-15T00:53:54.303Z,6.37
2019-03-15T00:56:26.908Z,5.83
2019-03-15T00:58:59.178Z,4.80
2019-03-15T01:01:31.083Z,4.10
2019-03-15T01:04:02.925Z,7.00
2019-03-15T01:06:36.329Z,5.33
2019-03-15T01:09:08.366Z,3.77
2019-03-15T01:11:45.387Z,4.50
2019-03-15T01:14:16.174Z,4.03
2019-03-15T01:16:48.051Z,3.70
2019-03-15T01:19:19.907Z,5.87
2019-03-15T01:21:52.333Z,4.37
2019-03-15T01:24:24.262Z,5.93
2019-03-15T01:26:56.154Z,5.80
2019-03-15T01:29:28.030Z,6.33
2019-03-15T01:31:59.878Z,4.40
2019-03-15T01:34:32.400Z,7.20
2019-03-15T01:37:04.662Z,5.27
2019-03-15T01:39:36.651Z,6.20
2019-03-15T01:42:08.612Z,8.60
2019-03-15T01:44:40.510Z,7.43
2019-03-15T01:47:12.778Z,4.67
2019-03-15T01:49:44.916Z,6.17
2019-03-15T01:52:16.743Z,6.23
2019-03-15T01:54:48.668Z,5.77
2019-03-15T01:57:20.607Z,10.73
2019-03-15T01:59:52.545Z,6.40
2019-03-15T02:02:24.786Z,8.23
2019-03-15T02:04:57.614Z,8.53
2019-03-15T02:07:30.646Z,6.60
2019-03-15T02:10:03.056Z,7.50
2019-03-15T02:12:35.447Z,7.97
2019-03-15T02:15:13.585Z,5.40
2019-03-15T02:17:45.466Z,7.53
2019-03-15T02:20:17.342Z,7.77
2019-03-15T02:22:49.255Z,7.57
2019-03-15T02:25:21.169Z,7.03
2019-03-15T02:27:53.079Z,5.07
2019-03-15T02:30:25.596Z,7.77
2019-03-15T02:32:57.935Z,4.90
2019-03-15T02:35:29.763Z,7.10
2019-03-15T02:38:02.138Z,6.67
2019-03-15T02:40:34.021Z,5.40
2019-03-15T02:43:06.334Z,6.70
2019-03-15T02:45:38.219Z,5.27
2019-03-15T02:48:10.680Z,7.27
2019-03-15T02:50:42.584Z,6.40
2019-03-15T02:53:14.395Z,4.47
2019-03-15T02:55:46.242Z,10.33
2019-03-15T02:58:18.101Z,6.37
2019-03-15T03:00:50.035Z,6.73
2019-03-15T03:03:22.437Z,7.73
2019-03-15T03:05:54.332Z,7.17
2019-03-15T03:08:26.203Z,5.73
2019-03-15T03:10:58.093Z,8.37
2019-03-15T03:13:30.024Z,9.30
2019-03-15T03:16:03.703Z,6.60
2019-03-15T03:18:35.973Z,8.10
2019-03-15T03:21:08.215Z,7.80
2019-03-15T03:23:40.126Z,10.87
2019-03-15T03:26:13.456Z,11.10
2019-03-15T03:28:46.174Z,11.90
2019-03-15T03:31:18.969Z,7.47
2019-03-15T03:33:51.230Z,8.40
2019-03-15T03:36:23.112Z,10.47
2019-03-15T03:38:55.901Z,9.20
2019-03-15T03:41:28.187Z,7.63
2019-03-15T03:44:00.127Z,10.50
2019-03-15T03:46:31.994Z,13.07
2019-03-15T03:49:05.952Z,10.97
2019-03-15T03:51:37.922Z,12.77
2019-03-15T03:54:10.922Z,9.23
2019-03-15T03:56:43.438Z,7.87
2019-03-15T03:59:15.737Z,10.50
2019-03-15T04:01:47.603Z,7.20
2019-03-15T04:04:19.441Z,8.80
2019-03-15T04:06:51.319Z,7.93
2019-03-15T04:09:23.191Z,6.63
2019-03-15T04:11:55.993Z,8.83
2019-03-15T04:14:28.917Z,7.47
2019-03-15T04:17:09.777Z,6.53
2019-03-15T04:19:58.576Z,9.67
2019-03-15T04:22:33.052Z,8.07
2019-03-15T04:25:08.407Z,9.93
2019-03-15T04:27:41.879Z,11.00
2019-03-15T04:30:16.259Z,10.90
2019-03-15T04:32:56.246Z,9.27
2019-03-15T04:35:29.295Z,10.50
2019-03-15T04:38:03.703Z,11.10
2019-03-15T04:40:35.491Z,10.90
2019-03-15T04:43:07.971Z,8.20
2019-03-15T04:45:40.080Z,10.37
2019-03-15T04:48:16.120Z,9.17
2019-03-15T04:50:50.185Z,9.13
2019-03-15T04:53:23.732Z,9.03
2019-03-15T04:55:55.697Z,9.13
2019-03-15T04:58:39.378Z,7.17
2019-03-15T05:01:11.425Z,7.90
2019-03-15T05:03:44.732Z,7.17
2019-03-15T05:06:17.474Z,11.27
2019-03-15T05:08:51.563Z,8.87
2019-03-15T05:11:23.466Z,7.93
2019-03-15T05:13:58.620Z,11.00
2019-03-15T05:16:31.278Z,7.03
2019-03-15T05:19:04.086Z,6.40
2019-03-15T05:21:37.349Z,9.73
2019-03-15T05:24:09.975Z,9.70
2019-03-15T05:26:42.025Z,9.47
2019-03-15T05:29:15.211Z,10.17
2019-03-15T05:31:48.174Z,10.80
2019-03-15T05:34:22.903Z,11.17
2019-03-15T05:36:54.787Z,10.57
2019-03-15T05:39:26.936Z,11.83
2019-03-15T05:42:00.374Z,10.70
2019-03-15T05:44:32.989Z,13.10
2019-03-15T05:47:08.528Z,9.93
2019-03-15T05:49:41.751Z,8.93
2019-03-15T05:52:14.268Z,11.63
2019-03-15T05:54:48.363Z,10.87
2019-03-15T05:57:21.498Z,9.13
2019-03-15T05:59:54.460Z,7.53
2019-03-15T06:02:28.868Z,12.20
2019-03-15T06:05:02.553Z,8.13
2019-03-15T06:07:35.862Z,10.13
2019-03-15T06:10:09.122Z,11.67
2019-03-15T06:12:41.976Z,10.23
2019-03-15T06:15:15.237Z,8.20
2019-03-15T06:17:48.996Z,10.83
2019-03-15T06:20:23.944Z,10.33
2019-03-15T06:22:58.914Z,9.63
2019-03-15T06:25:32.759Z,13.27
2019-03-15T06:28:04.939Z,10.90
2019-03-15T06:30:37.573Z,12.73
2019-03-15T06:33:10.883Z,8.47
2019-03-15T06:35:44.501Z,9.17
2019-03-15T06:38:16.759Z,13.87
2019-03-15T06:40:50.056Z,13.03
2019-03-15T06:43:23.133Z,8.90
2019-03-15T06:45:55.282Z,8.43
2019-03-15T06:48:28.265Z,11.57
2019-03-15T06:51:00.253Z,10.90
2019-03-15T06:53:34.470Z,11.37
2019-03-15T06:56:08.060Z,9.07
2019-03-15T06:58:40.166Z,9.63
2019-03-15T07:01:13.408Z,10.17
2019-03-15T07:03:46.966Z,11.27
2019-03-15T07:06:18.835Z,10.37
2019-03-15T07:08:51.997Z,13.00
2019-03-15T07:11:25.210Z,10.53
2019-03-15T07:13:57.347Z,12.30
2019-03-15T07:16:29.446Z,10.20
2019-03-15T07:19:04.150Z,9.00
2019-03-15T07:21:37.897Z,13.17
2019-03-15T07:24:10.398Z,9.80
2019-03-15T07:26:43.893Z,10.33
2019-03-15T07:29:18.838Z,9.10
2019-03-15T07:31:50.245Z,9.93
2019-03-15T07:34:22.797Z,8.67
2019-03-15T07:36:57.382Z,8.37
2019-03-15T07:39:29.812Z,11.23
2019-03-15T07:42:02.259Z,11.07
2019-03-15T07:44:35.804Z,8.73
2019-03-15T07:47:10.102Z,8.93
2019-03-15T07:49:41.904Z,9.33
2019-03-15T07:52:14.038Z,6.13
2019-03-15T07:54:46.090Z,7.60
2019-03-15T07:57:18.545Z,13.67
2019-03-15T07:59:50.945Z,9.90
2019-03-15T08:02:23.665Z,9.10
2019-03-15T08:04:57.256Z,9.97
2019-03-15T08:07:36.166Z,9.90
2019-03-15T08:10:04.550Z,8.97
2019-03-15T08:12:38.874Z,5.57
2019-03-15T08:15:11.868Z,7.93
2019-03-15T08:17:46.808Z,9.70
2019-03-15T08:20:19.935Z,5.50
2019-03-15T08:22:53.377Z,7.93
2019-03-15T08:25:27.351Z,8.23
2019-03-15T08:28:02.297Z,9.40
2019-03-15T08:30:36.441Z,8.40
2019-03-15T08:33:10.445Z,6.43
2019-03-15T08:35:43.812Z,6.13
2019-03-15T08:38:17.707Z,13.93
2019-03-15T08:40:50.985Z,7.67
2019-03-15T08:43:24.017Z,9.97
2019-03-15T08:45:56.625Z,6.43
2019-03-15T08:48:31.615Z,7.20
2019-03-15T08:51:02.264Z,8.70
2019-03-15T08:53:34.607Z,8.97
2019-03-15T08:56:08.393Z,6.47
2019-03-15T08:58:40.709Z,5.33
2019-03-15T09:01:14.384Z,6.60
2019-03-15T09:03:48.607Z,7.00
2019-03-15T09:06:23.062Z,6.73
2019-03-15T09:08:55.317Z,4.60
2019-03-15T09:11:27.473Z,8.67
2019-03-15T09:13:59.776Z,7.30
2019-03-15T09:16:32.037Z,6.13
2019-03-15T09:19:05.517Z,6.47
2019-03-15T09:21:37.974Z,4.67
2019-03-15T09:24:10.419Z,5.33
2019-03-15T09:26:43.372Z,5.60
2019-03-15T09:29:15.802Z,4.80
2019-03-15T09:31:49.143Z,4.67
2019-03-15T09:34:21.956Z,6.03
2019-03-15T09:36:56.915Z,4.60
2019-03-15T09:39:29.507Z,5.83
2019-03-15T09:42:01.492Z,4.97
2019-03-15T09:44:37.327Z,5.33
2019-03-15T09:47:09.677Z,4.80
2019-03-15T09:49:42.158Z,4.90
2019-03-15T09:52:14.643Z,3.80
2019-03-15T09:54:46.812Z,5.43
2019-03-15T09:57:18.978Z,3.60
2019-03-15T09:59:54.087Z,4.87
2019-03-15T10:02:30.734Z,3.60
2019-03-15T10:05:10.117Z,5.00
2019-03-15T10:07:38.786Z,3.10
2019-03-15T10:10:13.939Z,2.30
2019-03-15T10:12:44.076Z,3.37
2019-03-15T10:15:16.718Z,2.73
2019-03-15T10:17:49.607Z,3.23
2019-03-15T10:20:32.765Z,2.57
2019-03-15T10:23:06.428Z,2.00
2019-03-15T10:25:46.802Z,3.63
2019-03-15T10:28:13.693Z,3.93
2019-03-15T10:30:46.511Z,3.93
2019-03-15T10:33:19.015Z,2.73
2019-03-15T10:35:51.526Z,1.67
2019-03-15T10:38:24.128Z,2.07
2019-03-15T10:40:56.372Z,0.70
2019-03-15T10:43:28.377Z,1.37
2019-03-15T10:46:02.021Z,1.30
2019-03-15T10:48:34.502Z,1.67
2019-03-15T10:51:06.717Z,1.27
2019-03-15T10:53:40.591Z,1.97
2019-03-15T10:56:13.255Z,1.80
2019-03-15T10:58:46.021Z,1.63
2019-03-15T11:01:19.959Z,1.87
2019-03-15T11:03:52.311Z,1.77
2019-03-15T11:06:26.733Z,1.87
2019-03-15T11:09:01.752Z,1.17
2019-03-15T11:11:34.110Z,3.00
2019-03-15T11:14:06.538Z,3.17
2019-03-15T11:16:38.928Z,2.00
2019-03-15T11:19:11.702Z,2.33
2019-03-15T11:21:43.838Z,2.10
2019-03-15T11:24:16.385Z,2.97
2019-03-15T11:26:50.294Z,1.80
2019-03-15T11:29:24.421Z,1.73
2019-03-15T11:31:58.443Z,1.67
2019-03-15T11:34:31.086Z,3.17
2019-03-15T11:37:03.610Z,2.43
2019-03-15T11:39:37.835Z,1.93
2019-03-15T11:42:11.360Z,1.53
2019-03-15T11:44:43.651Z,1.73
2019-03-15T11:47:16.165Z,1.83
2019-03-15T11:49:49.559Z,1.57
2019-03-15T11:52:22.698Z,2.10
2019-03-15T11:54:54.996Z,3.27
2019-03-15T11:57:27.543Z,3.40
2019-03-15T11:59:59.624Z,3.53
2019-03-15T12:02:31.913Z,2.80
2019-03-15T12:05:06.051Z,2.50
2019-03-15T12:07:38.933Z,3.13
2019-03-15T12:10:13.810Z,2.20
2019-03-15T12:12:47.092Z,2.70
2019-03-15T12:15:19.308Z,4.17
2019-03-15T12:17:59.177Z,1.63
2019-03-15T12:20:31.312Z,1.77
2019-03-15T12:23:04.062Z,2.43
2019-03-15T12:25:37.376Z,2.50
2019-03-15T12:28:10.115Z,2.57
2019-03-15T12:30:43.233Z,2.00
2019-03-15T12:33:15.496Z,2.10
2019-03-15T12:35:48.061Z,2.60
2019-03-15T12:38:21.040Z,1.90
2019-03-15T12:40:54.842Z,3.17
2019-03-15T12:43:28.103Z,1.60
2019-03-15T12:46:00.733Z,3.30
2019-03-15T12:48:33.628Z,1.20
2019-03-15T12:51:06.958Z,1.97
2019-03-15T12:53:39.003Z,1.83
2019-03-15T12:56:11.379Z,1.70
2019-03-15T12:58:44.963Z,1.30
2019-03-15T13:01:17.176Z,1.00
2019-03-15T13:03:51.088Z,1.70
2019-03-15T13:06:24.154Z,1.20
2019-03-15T13:08:57.686Z,1.57
2019-03-15T13:11:30.630Z,1.50
2019-03-15T13:14:03.090Z,2.23
2019-03-15T13:16:35.445Z,1.20
2019-03-15T13:19:07.657Z,2.10
2019-03-15T13:21:39.697Z,1.00
2019-03-15T13:24:13.092Z,2.53
2019-03-15T13:26:45.985Z,1.47
2019-03-15T13:29:18.045Z,1.10
2019-03-15T13:31:50.828Z,1.90
2019-03-15T13:34:22.908Z,1.77
2019-03-15T13:36:55.356Z,1.10
2019-03-15T13:39:28.072Z,0.80
2019-03-15T13:42:00.855Z,1.23
2019-03-15T13:44:35.288Z,3.77
2019-03-15T13:47:08.811Z,5.27
2019-03-15T13:49:42.476Z,1.90
2019-03-15T13:52:14.456Z,1.20
2019-03-15T13:54:47.265Z,1.40
2019-03-15T13:57:21.531Z,1.13
2019-03-15T13:59:57.310Z,1.47
2019-03-15T14:02:30.353Z,1.03
2019-03-15T14:05:03.728Z,1.93
2019-03-15T14:07:35.719Z,1.17
2019-03-15T14:10:11.481Z,2.37
2019-03-15T14:12:43.653Z,1.40
2019-03-15T14:15:18.357Z,0.80
2019-03-15T14:17:52.003Z,1.20
2019-03-15T14:20:24.550Z,1.00
2019-03-15T14:22:56.637Z,1.03
2019-03-15T14:25:29.324Z,0.70
2019-03-15T14:28:01.818Z,1.20
2019-03-15T14:30:35.085Z,2.23
2019-03-15T14:33:07.834Z,0.83
2019-03-15T14:35:41.186Z,1.07
2019-03-15T14:38:13.561Z,1.37
2019-03-15T14:40:45.663Z,1.93
2019-03-15T14:43:18.762Z,0.97
2019-03-15T14:45:53.436Z,0.70
2019-03-15T14:48:28.218Z,0.60
2019-03-15T14:51:01.729Z,0.83
2019-03-15T14:53:34.104Z,0.70
2019-03-15T14:56:06.259Z,1.83
2019-03-15T14:58:39.640Z,1.73
2019-03-15T15:01:13.269Z,0.70
2019-03-15T15:03:45.729Z,1.07
2019-03-15T15:06:18.173Z,0.70
2019-03-15T15:08:50.164Z,0.90
2019-03-15T15:11:25.623Z,0.77
2019-03-15T15:13:57.366Z,0.60
2019-03-15T15:16:31.365Z,1.57
2019-03-15T15:19:05.158Z,1.03
2019-03-15T15:21:37.809Z,0.80
2019-03-15T15:24:10.475Z,0.70
2019-03-15T15:26:44.290Z,0.90
2019-03-15T15:29:17.378Z,0.80
2019-03-15T15:31:51.969Z,0.70
2019-03-15T15:34:27.994Z,0.60
2019-03-15T15:37:00.787Z,1.00
2019-03-15T15:39:33.815Z,2.40
2019-03-15T15:42:09.827Z,0.60
2019-03-15T15:44:43.381Z,1.00
2019-03-15T15:47:16.525Z,0.80
2019-03-15T15:49:50.163Z,1.77
2019-03-15T15:52:22.990Z,1.60
2019-03-15T15:54:56.164Z,0.93
2019-03-15T15:57:31.206Z,1.00
2019-03-15T16:00:03.355Z,1.20
2019-03-15T16:02:36.762Z,0.80
2019-03-15T16:05:09.001Z,2.53
2019-03-15T16:07:41.440Z,1.43
2019-03-15T16:10:17.955Z,1.10
2019-03-15T16:12:50.813Z,1.43
2019-03-15T16:15:29.840Z,1.27
2019-03-15T16:18:03.324Z,0.80
2019-03-15T16:20:35.835Z,0.97
2019-03-15T16:23:08.222Z,1.47
2019-03-15T16:25:40.031Z,1.87
2019-03-15T16:28:12.194Z,2.13
2019-03-15T16:30:46.269Z,0.93
2019-03-15T16:33:18.569Z,1.67
2019-03-15T16:35:53.414Z,1.20
2019-03-15T16:38:27.179Z,1.43
2019-03-15T16:40:59.849Z,0.90
2019-03-15T16:43:31.929Z,1.27
2019-03-15T16:46:04.595Z,1.50
2019-03-15T16:48:38.308Z,1.00
2019-03-15T16:51:19.574Z,1.40
2019-03-15T16:53:45.134Z,1.17
2019-03-15T16:56:20.124Z,0.73
2019-03-15T16:58:53.630Z,3.23
2019-03-15T17:01:27.829Z,0.83
2019-03-15T17:04:01.354Z,0.83
2019-03-15T17:06:34.736Z,2.30
2019-03-15T17:09:07.608Z,0.80
2019-03-15T17:11:40.333Z,1.63
2019-03-15T17:14:24.819Z,0.93
2019-03-15T17:16:46.868Z,1.00
2019-03-15T17:19:26.200Z,0.83
2019-03-15T17:21:58.540Z,1.30
2019-03-15T17:24:30.482Z,1.13
2019-03-15T17:27:03.839Z,1.20
2019-03-15T17:29:35.919Z,1.07
2019-03-15T17:32:09.036Z,0.97
2019-03-15T17:34:42.713Z,1.17
2019-03-15T17:37:16.290Z,1.00
2019-03-15T17:39:48.805Z,1.10
2019-03-15T17:42:20.808Z,0.83
2019-03-15T17:44:57.786Z,1.00
2019-03-15T17:47:29.857Z,1.50
2019-03-15T17:50:02.816Z,1.03
2019-03-15T17:52:37.283Z,1.43
2019-03-15T17:55:10.155Z,1.50
2019-03-15T17:57:45.393Z,2.70
2019-03-15T18:00:23.947Z,2.53
2019-03-15T18:02:55.931Z,1.77
2019-03-15T18:05:30.689Z,1.20
2019-03-15T18:08:03.310Z,1.10
2019-03-15T18:10:36.364Z,1.50
2019-03-15T18:13:08.681Z,1.13
2019-03-15T18:15:41.348Z,1.00
2019-03-15T18:18:14.403Z,1.30
2019-03-15T18:20:46.442Z,1.00
2019-03-15T18:23:19.041Z,1.00
2019-03-15T18:25:51.143Z,1.13
2019-03-15T18:28:23.600Z,1.13
2019-03-15T18:30:59.277Z,0.90
2019-03-15T18:33:30.298Z,1.63
2019-03-15T18:36:04.428Z,1.20
2019-03-15T18:38:38.518Z,1.50
2019-03-15T18:41:11.531Z,1.00
2019-03-15T18:43:44.023Z,1.30
2019-03-15T18:46:16.617Z,1.23
2019-03-15T18:48:49.082Z,1.10
2019-03-15T18:51:23.674Z,1.20
2019-03-15T18:53:59.617Z,1.10
2019-03-15T18:56:31.650Z,2.20
2019-03-15T18:59:04.862Z,1.10
2019-03-15T19:01:37.322Z,1.77
2019-03-15T19:04:09.239Z,1.50
2019-03-15T19:06:41.347Z,1.43
2019-03-15T19:09:14.346Z,1.17
2019-03-15T19:11:46.892Z,1.30
2019-03-15T19:14:22.068Z,2.07
2019-03-15T19:16:54.084Z,1.33
2019-03-15T19:19:26.532Z,1.10
2019-03-15T19:21:59.769Z,1.47
2019-03-15T19:24:32.557Z,1.30
2019-03-15T19:27:06.222Z,1.70
2019-03-15T19:29:52.804Z,1.40
2019-03-15T19:32:14.612Z,1.20
2019-03-15T19:34:47.003Z,1.53
2019-03-15T19:37:19.143Z,1.10
2019-03-15T19:39:51.263Z,1.20
2019-03-15T19:42:23.378Z,1.97
2019-03-15T19:44:56.665Z,1.20
2019-03-15T19:47:29.699Z,1.43
2019-03-15T19:50:01.604Z,0.80
2019-03-15T19:52:35.109Z,0.80
2019-03-15T19:55:07.961Z,1.27
2019-03-15T19:57:40.730Z,0.80
2019-03-15T20:00:16.041Z,1.10
2019-03-15T20:02:52.253Z,0.77
2019-03-15T20:05:24.639Z,0.70
2019-03-15T20:07:57.086Z,1.07
2019-03-15T20:10:30.247Z,0.70
2019-03-15T20:13:02.784Z,0.67
2019-03-15T20:15:35.643Z,0.90
2019-03-15T20:18:08.160Z,0.73
2019-03-15T20:20:41.786Z,0.60
2019-03-15T20:23:14.181Z,0.80
2019-03-15T20:25:48.605Z,1.10
2019-03-15T20:28:20.902Z,0.90
2019-03-15T20:30:53.037Z,0.90
2019-03-15T20:33:25.597Z,2.07
2019-03-15T20:35:57.853Z,1.17
2019-03-15T20:38:32.006Z,0.50
2019-03-15T20:41:05.140Z,0.63
2019-03-15T20:43:37.079Z,0.73
2019-03-15T20:46:11.804Z,0.70
2019-03-15T20:48:44.791Z,0.60
2019-03-15T20:51:17.308Z,0.57
2019-03-15T20:53:49.347Z,0.87
2019-03-15T20:56:21.901Z,0.50
2019-03-15T20:58:55.097Z,1.17
2019-03-15T21:01:28.503Z,0.60
2019-03-15T21:04:02.345Z,0.60
2019-03-15T21:06:36.432Z,0.50
2019-03-15T21:09:09.714Z,0.50
2019-03-15T21:11:43.174Z,0.50
2019-03-15T21:14:15.215Z,0.67
2019-03-15T21:16:49.003Z,0.63
2019-03-15T21:19:23.935Z,0.47
2019-03-15T21:21:57.397Z,0.50
2019-03-15T21:24:31.411Z,0.47
2019-03-15T21:27:04.396Z,0.60
2019-03-15T21:29:37.708Z,0.50
2019-03-15T21:32:09.563Z,0.97
2019-03-15T21:34:43.050Z,0.50
2019-03-15T21:37:15.232Z,0.60
2019-03-15T21:39:48.111Z,0.50
2019-03-15T21:42:21.353Z,1.23
2019-03-15T21:44:56.643Z,0.70
2019-03-15T21:47:29.896Z,1.47
2019-03-15T21:50:02.641Z,1.77
2019-03-15T21:52:36.284Z,0.70
2019-03-15T21:55:09.339Z,0.60
2019-03-15T21:57:44.259Z,0.60
2019-03-15T22:00:16.895Z,0.60
2019-03-15T22:02:49.375Z,0.83
2019-03-15T22:05:23.124Z,0.80
2019-03-15T22:07:57.426Z,0.60
2019-03-15T22:10:29.617Z,0.70
2019-03-15T22:13:01.668Z,1.20
2019-03-15T22:15:34.270Z,0.50
2019-03-15T22:18:06.234Z,1.10
2019-03-15T22:20:38.402Z,0.60
2019-03-15T22:23:12.980Z,0.60
2019-03-15T22:25:46.096Z,0.60
2019-03-15T22:28:18.250Z,0.73
2019-03-15T22:30:51.420Z,1.57
2019-03-15T22:33:24.459Z,0.60
2019-03-15T22:35:57.741Z,1.27
2019-03-15T22:38:30.407Z,0.80
2019-03-15T22:41:03.633Z,0.60
2019-03-15T22:43:37.004Z,0.63
2019-03-15T22:46:10.448Z,0.70
2019-03-15T22:48:45.055Z,0.50
2019-03-15T22:51:18.619Z,0.70
2019-03-15T22:53:51.518Z,0.60
2019-03-15T22:56:23.888Z,0.87
2019-03-15T22:58:56.883Z,0.60
2019-03-15T23:01:30.654Z,0.57
2019-03-15T23:04:02.924Z,0.70
2019-03-15T23:06:36.692Z,0.90
2019-03-15T23:09:09.367Z,1.57
2019-03-15T23:11:44.499Z,1.13
2019-03-15T23:14:16.274Z,0.60
2019-03-15T23:16:49.025Z,0.60
2019-03-15T23:19:22.342Z,1.43
2019-03-15T23:21:54.532Z,1.60
2019-03-15T23:24:27.858Z,0.60
2019-03-15T23:27:00.035Z,0.70
2019-03-15T23:29:32.066Z,0.70
2019-03-15T23:32:04.109Z,0.60
2019-03-15T23:34:36.625Z,0.60
2019-03-15T23:37:09.149Z,0.70
2019-03-15T23:39:42.287Z,0.60
2019-03-15T23:42:14.880Z,0.80
2019-03-15T23:44:47.525Z,0.80
2019-03-15T23:47:20.296Z,1.40
2019-03-15T23:49:52.603Z,0.80
2019-03-15T23:52:24.625Z,0.63
2019-03-15T23:54:57.280Z,0.60
2019-03-15T23:57:30.121Z,0.70
